Time;durP1;ratioP1;P1;durP2;ratioP2;P2;SDS_P1;SDS_P2;PMS_P1;PMS_P2;Temp;Humidity;BMP_temperature;BMP_pressure;BME280_temperature;BME280_humidity;BME280_pressure;Samples;Min_cycle;Max_cycle;Signal;HPM_P1;HPM_P2
2021/11/12 00:12:26;;;;;;;57.60;28.75;;;5.30;93.90;;;;;;5045273;28;20080;-75
2021/11/12 00:14:54;;;;;;;54.95;29.20;;;5.20;93.90;;;;;;5051872;28;20043;-75
2021/11/12 00:17:23;;;;;;;55.45;29.73;;;5.20;93.90;;;;;;5052863;28;20098;-75
2021/11/12 00:19:50;;;;;;;56.92;30.85;;;5.20;93.90;;;;;;5047606;28;20025;-75
2021/11/12 00:22:17;;;;;;;59.28;30.08;;;5.20;93.90;;;;;;5052675;28;20029;-75
2021/11/12 00:24:43;;;;;;;64.05;30.80;;;5.20;93.90;;;;;;5054448;28;20029;-75
2021/11/12 00:27:09;;;;;;;55.30;29.63;;;5.20;93.90;;;;;;5053978;28;20083;-75
2021/11/12 00:29:58;;;;;;;54.67;28.95;;;5.10;93.90;;;;;;5044410;28;20032;-75
2021/11/12 00:40:02;;;;;;;59.70;29.52;;;5.10;93.90;;;;;;5053746;28;20061;-75
2021/11/12 00:42:55;;;;;;;54.70;29.17;;;5.00;93.80;;;;;;5050890;28;20037;-75
2021/11/12 00:45:23;;;;;;;60.72;30.25;;;5.00;93.80;;;;;;5052376;28;20028;-75
2021/11/12 00:48:10;;;;;;;54.28;28.50;;;5.10;93.80;;;;;;5052264;28;20112;-75
2021/11/12 00:55:41;;;;;;;59.08;29.63;;;4.90;93.70;;;;;;5052039;28;20537;-75
2021/11/12 00:58:13;;;;;;;65.88;30.17;;;4.90;93.70;;;;;;5051426;28;20024;-75
2021/11/12 01:00:40;;;;;;;62.78;29.27;;;4.90;93.80;;;;;;5051690;28;20116;-75
2021/11/12 01:03:06;;;;;;;59.13;29.42;;;4.80;93.80;;;;;;5051459;28;20035;-75
2021/11/12 01:05:32;;;;;;;57.72;27.98;;;4.80;93.80;;;;;;5051473;28;20032;-75
2021/11/12 01:08:02;;;;;;;60.97;30.50;;;4.80;93.80;;;;;;5052716;28;20115;-74
2021/11/12 01:10:29;;;;;;;62.67;29.48;;;4.80;93.70;;;;;;5051952;28;20029;-77
2021/11/12 01:12:57;;;;;;;61.28;30.08;;;4.70;93.80;;;;;;5052471;28;20040;-77
2021/11/12 01:15:24;;;;;;;65.25;31.63;;;4.80;93.80;;;;;;5053941;28;20037;-77
2021/11/12 01:17:51;;;;;;;65.47;32.42;;;4.70;93.80;;;;;;5053005;28;20029;-77
2021/11/12 01:20:18;;;;;;;64.72;31.27;;;4.70;93.80;;;;;;5051829;28;20385;-77
2021/11/12 01:22:45;;;;;;;60.03;30.80;;;4.70;93.80;;;;;;5050747;28;20745;-77
2021/11/12 01:25:14;;;;;;;62.45;29.98;;;4.60;93.80;;;;;;5051941;28;20384;-77
2021/11/12 01:27:41;;;;;;;76.97;36.20;;;4.60;93.80;;;;;;5057602;28;20404;-77
2021/11/12 01:30:09;;;;;;;66.00;32.63;;;4.60;93.80;;;;;;5050875;28;20405;-77
2021/11/12 01:32:35;;;;;;;65.57;32.08;;;4.60;94.00;;;;;;5047713;28;20830;-77
2021/11/12 01:35:02;;;;;;;71.43;32.53;;;4.60;94.10;;;;;;5050248;28;20117;-77
2021/11/12 01:37:29;;;;;;;75.80;36.10;;;4.60;94.10;;;;;;5049791;28;20037;-77
2021/11/12 01:39:59;;;;;;;71.93;35.25;;;4.60;94.20;;;;;;5049668;28;20032;-77
2021/11/12 01:42:28;;;;;;;73.60;36.08;;;4.70;94.30;;;;;;5052154;28;20021;-77
2021/11/12 01:45:08;;;;;;;85.43;35.83;;;4.70;94.30;;;;;;5033931;28;20025;-77
2021/11/12 01:50:12;;;;;;;80.22;37.05;;;4.70;94.40;;;;;;5032686;28;20025;-77
2021/11/12 01:52:42;;;;;;;78.78;38.40;;;4.70;94.50;;;;;;5052621;28;20052;-77
2021/11/12 01:55:12;;;;;;;78.15;36.08;;;4.70;94.50;;;;;;5053459;28;20435;-77
2021/11/12 01:57:49;;;;;;;;;;;4.70;94.60;;;;;;5053904;28;20106;-77
2021/11/12 02:00:19;;;;;;;81.65;36.47;;;4.70;94.60;;;;;;5053194;28;20311;-77
2021/11/12 02:02:45;;;;;;;75.63;34.50;;;4.70;94.60;;;;;;5053157;28;20021;-77
2021/11/12 02:05:12;;;;;;;72.07;33.88;;;4.70;94.60;;;;;;5052029;28;20021;-77
2021/11/12 02:07:39;;;;;;;79.07;37.15;;;4.70;94.60;;;;;;5052570;28;20033;-77
2021/11/12 02:10:14;;;;;;;72.85;34.47;;;4.70;94.70;;;;;;5034334;28;20603;-77
2021/11/12 02:15:26;;;;;;;74.88;36.00;;;4.70;94.70;;;;;;5052390;28;20040;-77
2021/11/12 02:18:11;;;;;;;83.43;39.03;;;4.70;94.70;;;;;;5052773;28;20112;-77
2021/11/12 02:20:46;;;;;;;79.30;37.10;;;4.70;94.70;;;;;;5052594;28;20024;-77
2021/11/12 02:23:12;;;;;;;75.22;35.88;;;4.70;95.00;;;;;;5052803;28;20048;-77
2021/11/12 02:25:41;;;;;;;77.93;36.55;;;4.60;94.70;;;;;;5052340;28;20052;-77
2021/11/12 02:28:15;;;;;;;;;;;4.60;94.70;;;;;;5052193;28;20040;-77
2021/11/12 02:30:48;;;;;;;70.28;35.70;;;4.60;94.70;;;;;;5051802;28;19908;-77
2021/11/12 02:33:17;;;;;;;77.38;34.75;;;4.60;94.80;;;;;;5051458;28;20056;-77
2021/11/12 02:36:00;;;;;;;71.18;36.40;;;4.50;94.80;;;;;;5052575;28;20098;-77
2021/11/12 02:38:26;;;;;;;73.97;36.30;;;4.60;94.80;;;;;;5052598;28;20497;-77
2021/11/12 02:40:52;;;;;;;74.82;36.85;;;4.50;94.80;;;;;;5051658;28;20083;-77
2021/11/12 02:43:18;;;;;;;69.97;34.78;;;4.50;94.80;;;;;;5052357;28;20025;-77
2021/11/12 02:45:44;;;;;;;71.88;34.38;;;4.50;94.80;;;;;;5033873;28;20041;-77
2021/11/12 02:48:11;;;;;;;74.28;35.58;;;4.50;94.80;;;;;;5052260;28;20491;-77
2021/11/12 02:50:39;;;;;;;74.97;37.33;;;4.50;95.10;;;;;;5051659;28;20067;-77
2021/11/12 02:53:10;;;;;;;74.72;36.67;;;4.50;94.80;;;;;;5051278;28;20020;-77
2021/11/12 02:55:37;;;;;;;73.10;35.97;;;4.50;94.80;;;;;;5040907;28;20198;-77
2021/11/12 02:58:03;;;;;;;77.70;36.83;;;4.40;94.80;;;;;;5032051;28;20025;-77
2021/11/12 03:00:29;;;;;;;74.10;37.88;;;4.40;94.80;;;;;;5051448;28;20049;-77
2021/11/12 03:02:55;;;;;;;71.75;37.33;;;4.40;94.80;;;;;;5051383;28;20133;-77
2021/11/12 03:05:21;;;;;;;75.65;36.42;;;4.40;94.80;;;;;;5052172;28;20024;-77
2021/11/12 03:07:46;;;;;;;84.38;36.83;;;4.40;94.80;;;;;;5051854;28;20048;-77
2021/11/12 03:10:14;;;;;;;69.90;34.38;;;4.40;94.80;;;;;;5052093;28;20095;-77
2021/11/12 03:12:40;;;;;;;72.00;35.83;;;4.40;94.80;;;;;;5051057;28;20013;-77
2021/11/12 03:15:06;;;;;;;71.53;35.33;;;4.40;94.80;;;;;;5050825;28;20049;-77
2021/11/12 03:17:35;;;;;;;72.45;36.72;;;4.30;94.80;;;;;;5030655;28;20033;-77
2021/11/12 03:20:01;;;;;;;72.60;35.63;;;4.30;94.70;;;;;;5050389;28;20025;-77
2021/11/12 03:22:33;;;;;;;65.82;32.88;;;4.20;94.70;;;;;;5052081;28;20036;-77
2021/11/12 03:25:05;;;;;;;70.28;34.65;;;4.20;94.60;;;;;;5052094;28;20108;-77
2021/11/12 03:27:50;;;;;;;75.75;36.08;;;4.20;94.60;;;;;;5034452;28;20029;-77
2021/11/12 03:31:18;;;;;;;72.65;35.38;;;4.10;94.60;;;;;;5048449;28;20501;-77
2021/11/12 03:47:11;;;;;;;67.95;34.33;;;3.80;94.50;;;;;;5052111;28;20090;-77
2021/11/12 05:10:59;;;;;;;66.60;32.78;;;3.50;94.50;;;;;;5052595;28;20055;-74
2021/11/12 05:43:38;;;;;;;60.58;29.77;;;3.30;94.50;;;;;;5051938;28;20052;-75
2021/11/12 05:51:28;;;;;;;55.28;27.35;;;3.20;94.50;;;;;;5051046;28;20151;-77
2021/11/12 05:56:47;;;;;;;53.30;27.98;;;3.10;94.50;;;;;;5036090;28;20033;-77
2021/11/12 05:59:15;;;;;;;52.13;25.67;;;3.10;94.50;;;;;;5051396;28;20032;-78
2021/11/12 06:01:41;;;;;;;49.63;26.80;;;3.10;94.50;;;;;;5051200;28;20921;-78
2021/11/12 06:04:07;;;;;;;46.17;24.20;;;3.10;94.50;;;;;;5047592;28;20114;-77
2021/11/12 06:06:33;;;;;;;49.25;24.33;;;3.00;94.50;;;;;;5051660;28;20076;-78
2021/11/12 06:09:00;;;;;;;51.38;25.45;;;3.00;94.50;;;;;;5052006;28;20029;-78
2021/11/12 06:11:27;;;;;;;41.90;23.00;;;3.00;94.50;;;;;;5053128;28;20025;-78
2021/11/12 06:13:55;;;;;;;42.30;22.80;;;3.00;94.50;;;;;;5052788;28;20495;-78
2021/11/12 06:16:22;;;;;;;44.60;23.90;;;3.00;94.50;;;;;;5055058;28;20037;-77
2021/11/12 06:18:48;;;;;;;39.88;22.15;;;2.90;94.40;;;;;;5052298;28;20025;-78
2021/11/12 06:21:13;;;;;;;43.35;23.30;;;2.90;94.50;;;;;;5051626;28;20469;-78
2021/11/12 06:23:41;;;;;;;39.10;21.75;;;2.90;94.50;;;;;;5052671;28;20033;-77
2021/11/12 06:26:07;;;;;;;40.80;21.55;;;2.90;94.50;;;;;;5050558;28;20084;-77
2021/11/12 06:28:33;;;;;;;37.97;21.00;;;2.90;94.50;;;;;;5051618;28;20029;-77
2021/11/12 06:31:00;;;;;;;37.50;21.83;;;2.90;94.50;;;;;;5051912;28;20452;-77
2021/11/12 06:33:26;;;;;;;37.90;20.98;;;2.90;94.50;;;;;;5050695;28;20068;-78
2021/11/12 06:35:52;;;;;;;38.95;21.15;;;2.80;94.40;;;;;;5049093;28;20029;-77
2021/11/12 06:38:21;;;;;;;42.33;22.80;;;2.80;94.40;;;;;;5049845;28;20495;-78
2021/11/12 06:40:48;;;;;;;40.95;21.63;;;2.70;94.40;;;;;;5034806;28;20542;-77
2021/11/12 06:43:29;;;;;;;36.08;20.95;;;2.80;94.40;;;;;;5046652;28;20138;-78
2021/11/12 06:51:24;;;;;;;35.78;20.70;;;2.70;94.40;;;;;;5042708;28;20580;-78
2021/11/12 07:02:03;;;;;;;43.80;21.42;;;2.70;94.30;;;;;;5051059;28;20044;-77
2021/11/12 07:04:29;;;;;;;38.33;20.15;;;2.60;94.30;;;;;;5034697;28;20029;-77
2021/11/12 07:06:54;;;;;;;39.78;20.42;;;2.60;94.30;;;;;;5052644;28;20037;-77
2021/11/12 07:09:20;;;;;;;31.55;19.13;;;2.60;94.40;;;;;;5052003;28;20029;-77
2021/11/12 07:11:45;;;;;;;40.67;19.75;;;2.70;94.40;;;;;;5051076;28;20072;-77
2021/11/12 07:14:11;;;;;;;37.95;21.50;;;2.70;94.30;;;;;;5052281;28;20044;-77
2021/11/12 07:16:38;;;;;;;34.78;19.58;;;2.70;94.30;;;;;;5051043;28;20033;-77
2021/11/12 07:19:03;;;;;;;38.05;21.17;;;2.70;94.30;;;;;;5051280;28;20029;-77
2021/11/12 07:21:29;;;;;;;44.90;21.80;;;2.80;94.30;;;;;;5034680;28;20401;-77
2021/11/12 07:23:55;;;;;;;42.65;22.33;;;2.80;94.30;;;;;;5052455;28;20389;-77
2021/11/12 07:26:21;;;;;;;45.47;24.38;;;2.80;94.30;;;;;;5051088;28;20033;-77
2021/11/12 07:28:49;;;;;;;60.00;24.05;;;2.90;94.40;;;;;;5052390;28;20052;-78
2021/11/12 07:31:18;;;;;;;43.97;21.55;;;2.90;94.40;;;;;;5034648;28;20378;-78
2021/11/12 07:33:46;;;;;;;61.40;23.48;;;2.90;94.40;;;;;;5050886;28;20556;-78
2021/11/12 07:36:33;;;;;;;75.75;23.70;;;2.90;94.30;;;;;;5052508;28;20082;-77
2021/11/12 07:39:02;;;;;;;54.05;25.33;;;2.90;94.30;;;;;;5050676;28;20034;-78
2021/11/12 07:41:53;;;;;;;76.00;24.40;;;2.90;94.30;;;;;;5052641;28;20025;-78
2021/11/12 07:44:34;;;;;;;79.35;24.83;;;2.90;94.40;;;;;;5052184;28;20122;-78
2021/11/12 07:47:02;;;;;;;103.55;24.33;;;2.90;94.40;;;;;;5052117;28;20044;-78
2021/11/12 07:49:28;;;;;;;85.85;26.05;;;2.90;94.40;;;;;;5052425;28;20496;-78
2021/11/12 07:51:55;;;;;;;91.90;23.77;;;2.90;94.40;;;;;;5052384;28;20474;-78
2021/11/12 07:54:21;;;;;;;87.60;23.13;;;3.00;94.50;;;;;;5034164;28;20030;-77
2021/11/12 07:56:47;;;;;;;148.02;23.63;;;3.00;94.50;;;;;;5034322;28;20063;-78
2021/11/12 07:59:13;;;;;;;76.07;21.65;;;2.90;94.50;;;;;;5050873;28;20088;-78
2021/11/12 08:01:40;;;;;;;80.45;20.90;;;3.00;94.50;;;;;;5033856;28;20128;-77
2021/11/12 08:04:07;;;;;;;114.18;21.83;;;3.00;94.60;;;;;;5033554;28;20029;-78
2021/11/12 08:06:33;;;;;;;83.90;19.73;;;3.00;94.60;;;;;;5051601;28;20036;-78
2021/11/12 08:09:06;;;;;;;189.10;21.25;;;3.10;94.60;;;;;;5050011;28;20037;-78
2021/11/12 08:11:46;;;;;;;57.85;18.38;;;3.10;94.50;;;;;;5049813;28;20049;-78
2021/11/12 08:14:22;;;;;;;195.57;21.63;;;3.10;94.60;;;;;;5049858;28;20041;-78
2021/11/12 08:24:51;;;;;;;107.63;21.98;;;3.10;94.50;;;;;;5053800;28;20037;-78
2021/11/12 08:30:15;;;;;;;72.72;20.35;;;3.10;94.60;;;;;;5056230;28;20090;-78
2021/11/12 08:33:00;;;;;;;;;;;3.20;94.60;;;;;;5056147;28;20040;-78
2021/11/12 08:45:37;;;;;;;102.65;21.40;;;3.30;94.50;;;;;;5054208;28;20493;-78
2021/11/12 08:48:14;;;;;;;85.45;20.73;;;3.30;94.60;;;;;;5055360;28;20462;-78
2021/11/12 08:50:41;;;;;;;51.88;20.02;;;3.30;94.60;;;;;;5054967;28;20040;-78
2021/11/12 08:53:09;;;;;;;75.45;21.92;;;3.40;94.60;;;;;;5055417;28;20021;-78
2021/11/12 08:55:37;;;;;;;91.00;21.92;;;3.40;94.60;;;;;;5021576;28;20039;-78
2021/11/12 08:58:05;;;;;;;42.50;22.13;;;3.50;94.60;;;;;;5053676;28;20044;-78
2021/11/12 09:00:31;;;;;;;48.50;22.27;;;3.50;94.60;;;;;;5048765;28;20061;-78
2021/11/12 09:02:58;;;;;;;70.30;23.08;;;3.60;94.70;;;;;;5054632;28;20486;-78
2021/11/12 09:05:24;;;;;;;65.43;22.67;;;3.60;94.60;;;;;;5054623;28;20017;-79
2021/11/12 09:07:52;;;;;;;41.03;21.20;;;3.60;94.60;;;;;;5054437;28;20108;-78
2021/11/12 09:10:23;;;;;;;64.65;22.92;;;3.70;94.70;;;;;;5032211;28;20044;-78
2021/11/12 09:12:54;;;;;;;89.88;24.20;;;3.70;94.70;;;;;;5060702;28;20674;-78
2021/11/12 09:15:26;;;;;;;49.58;23.40;;;3.70;94.70;;;;;;5072675;28;20103;-78
2021/11/12 09:17:53;;;;;;;51.88;24.17;;;3.80;94.80;;;;;;5072530;28;20392;-78
2021/11/12 09:20:19;;;;;;;52.40;22.83;;;3.80;94.80;;;;;;5056489;28;20043;-78
2021/11/12 09:22:45;;;;;;;58.97;25.83;;;3.90;94.80;;;;;;5062475;28;20032;-78
2021/11/12 09:25:11;;;;;;;52.35;27.70;;;4.00;94.80;;;;;;5054670;28;20492;-78
2021/11/12 09:27:38;;;;;;;62.97;27.08;;;4.00;94.80;;;;;;5054513;28;20055;-79
2021/11/12 09:30:09;;;;;;;49.28;26.27;;;4.00;94.80;;;;;;5054220;28;20033;-78
2021/11/12 09:32:35;;;;;;;63.15;27.95;;;4.10;94.80;;;;;;5052659;28;20124;-78
2021/11/12 09:35:01;;;;;;;55.63;28.27;;;4.10;94.80;;;;;;5036064;28;20123;-78
2021/11/12 09:37:27;;;;;;;59.38;28.80;;;4.20;94.80;;;;;;5052428;28;20108;-78
2021/11/12 09:39:55;;;;;;;61.47;27.08;;;4.20;94.80;;;;;;5052270;28;20029;-79
2021/11/12 09:42:27;;;;;;;49.83;25.42;;;4.30;94.80;;;;;;5052736;28;20021;-79
2021/11/12 09:44:54;;;;;;;49.10;27.25;;;4.40;94.80;;;;;;5044903;28;20032;-79
2021/11/12 09:47:24;;;;;;;51.17;27.02;;;4.50;94.80;;;;;;5052468;28;20036;-79
2021/11/12 09:50:03;;;;;;;58.03;27.10;;;4.60;94.70;;;;;;5053835;28;20032;-79
2021/11/12 09:52:30;;;;;;;57.13;27.48;;;4.60;94.60;;;;;;5052904;28;20064;-79
2021/11/12 09:54:57;;;;;;;44.55;24.10;;;4.70;94.50;;;;;;5054080;28;20032;-79
2021/11/12 09:57:23;;;;;;;51.40;27.25;;;4.70;94.50;;;;;;5035585;28;20045;-79
2021/11/12 09:59:57;;;;;;;51.58;26.92;;;4.70;94.60;;;;;;5053717;28;20531;-79
2021/11/12 10:02:23;;;;;;;52.35;27.77;;;4.80;94.60;;;;;;5052205;28;20400;-80
2021/11/12 10:04:50;;;;;;;46.58;26.95;;;4.90;94.50;;;;;;5049356;28;20394;-79
2021/11/12 10:07:17;;;;;;;55.70;28.42;;;4.90;94.50;;;;;;5055441;28;20044;-79
2021/11/12 10:09:45;;;;;;;47.25;26.85;;;4.90;94.40;;;;;;5061131;28;20131;-79
2021/11/12 10:12:11;;;;;;;55.33;29.30;;;4.90;94.40;;;;;;5055687;28;20031;-78
2021/11/12 10:14:49;;;;;;;47.08;27.85;;;5.00;94.50;;;;;;5051833;28;20408;-79
2021/11/12 10:17:15;;;;;;;48.95;27.25;;;5.10;94.60;;;;;;5051249;28;20059;-79
2021/11/12 10:19:53;;;;;;;48.38;27.52;;;5.20;94.50;;;;;;5060335;28;20052;-79
2021/11/12 10:22:24;;;;;;;50.13;28.13;;;5.30;94.40;;;;;;5065602;28;20026;-79
2021/11/12 10:24:50;;;;;;;46.20;28.30;;;5.30;94.20;;;;;;5057220;28;20032;-79
2021/11/12 10:27:25;;;;;;;48.30;28.15;;;5.30;94.20;;;;;;5058674;28;20020;-79
2021/11/12 10:29:53;;;;;;;47.90;26.48;;;5.40;94.50;;;;;;5057741;28;20028;-79
2021/11/12 10:32:39;;;;;;;47.05;26.10;;;5.40;94.20;;;;;;5041678;28;20055;-79
2021/11/12 10:35:09;;;;;;;41.80;25.83;;;5.50;94.20;;;;;;5052598;28;20027;-79
2021/11/12 10:37:37;;;;;;;41.97;24.65;;;5.50;94.10;;;;;;5051669;28;20075;-79
2021/11/12 10:40:18;;;;;;;40.83;24.60;;;5.50;94.10;;;;;;5059536;28;20045;-79
2021/11/12 10:42:47;;;;;;;43.95;26.63;;;5.60;94.10;;;;;;5053470;28;20029;-79
2021/11/12 10:45:19;;;;;;;47.85;26.48;;;5.60;94.00;;;;;;5052403;28;20013;-79
2021/11/12 10:47:54;;;;;;;45.15;26.63;;;5.70;94.10;;;;;;5052563;28;20033;-78
2021/11/12 10:50:22;;;;;;;38.08;25.52;;;5.70;94.00;;;;;;5050738;28;20037;-79
2021/11/12 10:52:51;;;;;;;46.70;26.98;;;5.70;94.00;;;;;;5055249;28;20028;-79
2021/11/12 10:55:21;;;;;;;43.58;25.42;;;5.90;94.10;;;;;;5055636;28;20025;-79
2021/11/12 10:58:10;;;;;;;47.28;27.65;;;6.00;94.00;;;;;;5050835;28;20021;-81
2021/11/12 11:00:39;;;;;;;48.70;25.17;;;6.20;94.00;;;;;;5051249;28;20029;-81
2021/11/12 11:03:11;;;;;;;38.13;23.13;;;6.30;93.80;;;;;;5051086;28;20029;-80
2021/11/12 11:05:45;;;;;;;47.60;26.50;;;6.40;93.70;;;;;;5051987;28;20060;-80
2021/11/12 11:08:13;;;;;;;37.28;22.25;;;6.50;93.60;;;;;;5050240;28;20033;-80
2021/11/12 11:11:02;;;;;;;36.35;23.92;;;6.60;93.60;;;;;;5052151;28;20827;-80
2021/11/12 11:13:37;;;;;;;38.15;22.45;;;6.70;93.50;;;;;;5051509;28;20036;-79
2021/11/12 11:16:06;;;;;;;36.08;22.70;;;6.90;93.40;;;;;;5052193;28;20539;-79
2021/11/12 11:18:36;;;;;;;36.60;22.38;;;7.00;93.30;;;;;;5052510;28;20029;-79
2021/11/12 11:23:39;;;;;;;33.30;21.80;;;7.10;93.10;;;;;;5051240;28;20029;-77
2021/11/12 11:26:06;;;;;;;35.15;21.90;;;7.30;93.10;;;;;;5051682;28;20062;-76
2021/11/12 11:28:33;;;;;;;37.50;21.95;;;7.50;92.80;;;;;;5034284;28;20111;-76
2021/11/12 11:31:05;;;;;;;35.80;22.25;;;7.80;92.20;;;;;;5050514;28;20185;-76
2021/11/12 11:33:31;;;;;;;35.72;21.70;;;8.10;91.50;;;;;;5048744;28;20870;-77
2021/11/12 11:35:57;;;;;;;34.90;22.73;;;8.40;91.00;;;;;;5042318;28;20193;-78
2021/11/12 11:38:28;;;;;;;38.92;22.77;;;8.70;90.40;;;;;;5050898;28;20500;-77
2021/11/12 11:40:54;;;;;;;33.38;22.30;;;9.00;89.70;;;;;;5051942;28;20791;-78
2021/11/12 11:43:20;;;;;;;30.90;20.13;;;9.20;88.90;;;;;;5051067;28;20444;-78
2021/11/12 11:45:47;;;;;;;31.70;20.15;;;9.40;88.20;;;;;;5050569;28;20032;-78
2021/11/12 11:48:17;;;;;;;30.98;19.35;;;9.60;87.50;;;;;;5051040;28;20021;-78
2021/11/12 11:50:55;;;;;;;27.92;18.50;;;9.80;87.10;;;;;;5045262;28;20473;-77
2021/11/12 11:53:26;;;;;;;31.73;21.35;;;10.00;86.90;;;;;;5045190;28;20151;-78
2021/11/12 11:56:11;;;;;;;29.77;19.35;;;10.00;86.60;;;;;;5043082;28;20101;-78
2021/11/12 11:58:43;;;;;;;27.23;18.95;;;9.90;86.70;;;;;;5039603;28;20021;-78
2021/11/12 12:01:26;;;;;;;29.02;19.52;;;10.20;85.80;;;;;;5048796;28;20028;-77
2021/11/12 12:04:12;;;;;;;32.53;19.50;;;10.20;85.50;;;;;;5048367;28;20021;-77
2021/11/12 12:06:39;;;;;;;29.70;18.98;;;10.00;86.30;;;;;;5055994;28;20355;-78
2021/11/12 12:09:11;;;;;;;28.85;17.77;;;9.80;87.10;;;;;;5033904;28;20035;-78
2021/11/12 12:11:54;;;;;;;28.30;18.13;;;9.70;87.70;;;;;;5051954;28;20047;-78
2021/11/12 12:14:34;;;;;;;28.13;18.17;;;9.70;88.00;;;;;;5036607;28;20041;-77
2021/11/12 12:17:03;;;;;;;29.02;19.13;;;9.80;88.00;;;;;;5054071;28;20024;-77
2021/11/12 13:25:28;;;;;;;30.73;18.95;;;10.20;86.90;;;;;;5054047;28;20013;-75
2021/11/12 13:28:10;;;;;;;28.50;18.60;;;10.10;86.90;;;;;;5053776;28;20094;-76
2021/11/12 13:30:37;;;;;;;30.88;20.38;;;10.00;86.90;;;;;;5048917;28;20433;-76
2021/11/12 13:33:04;;;;;;;26.65;18.85;;;9.90;86.30;;;;;;5032369;28;20136;-75
2021/11/12 13:35:31;;;;;;;30.42;18.20;;;9.90;86.20;;;;;;5032310;28;20436;-75
2021/11/12 13:37:56;;;;;;;32.90;18.80;;;9.80;86.40;;;;;;5032486;28;20047;-76
2021/11/12 13:40:23;;;;;;;30.15;19.70;;;9.80;86.70;;;;;;5051708;28;20112;-76
2021/11/12 13:42:49;;;;;;;30.77;17.92;;;9.90;86.70;;;;;;5051554;28;20032;-75
2021/11/12 13:45:23;;;;;;;32.47;20.98;;;10.00;86.40;;;;;;5034899;28;20497;-75
2021/11/12 13:48:11;;;;;;;31.02;20.00;;;10.20;85.60;;;;;;5051416;28;20778;-76
2021/11/12 13:50:39;;;;;;;33.13;21.75;;;10.30;85.20;;;;;;5049578;28;20036;-76
2021/11/12 13:53:06;;;;;;;31.88;22.15;;;10.20;85.30;;;;;;5034852;28;20079;-76
2021/11/12 13:55:37;;;;;;;30.77;21.35;;;10.20;85.60;;;;;;5034584;28;20033;-75
2021/11/12 13:58:05;;;;;;;29.83;19.60;;;10.20;85.50;;;;;;5052454;28;20029;-75
2021/11/12 14:00:31;;;;;;;32.35;20.38;;;10.10;85.90;;;;;;5051856;28;20029;-75
2021/11/12 14:03:05;;;;;;;27.63;18.20;;;10.10;86.00;;;;;;5050166;28;20033;-75
2021/11/12 14:05:33;;;;;;;27.60;17.63;;;10.20;86.10;;;;;;5050078;28;20500;-75
2021/11/12 14:08:10;;;;;;;27.17;18.17;;;10.10;86.10;;;;;;5031709;28;20037;-76
2021/11/12 14:10:44;;;;;;;27.50;18.23;;;10.00;86.30;;;;;;5031615;28;20038;-75
2021/11/12 14:13:14;;;;;;;29.70;17.08;;;9.90;86.60;;;;;;5029873;28;20450;-76
2021/11/12 14:15:48;;;;;;;25.05;16.15;;;9.80;86.90;;;;;;5039345;28;20036;-75
2021/11/12 14:32:36;;;;;;;26.35;17.13;;;9.60;88.60;;;;;;5050311;28;20053;-75
2021/11/12 14:46:00;;;;;;;26.60;16.50;;;9.40;89.60;;;;;;5050043;28;20060;-76
2021/11/12 14:53:31;;;;;;;31.10;18.00;;;9.40;90.10;;;;;;5051361;28;20060;-76
2021/11/12 14:56:12;;;;;;;25.73;17.88;;;9.40;90.20;;;;;;5067630;28;20028;-77
2021/11/12 14:58:42;;;;;;;26.70;17.65;;;9.40;90.30;;;;;;5058238;28;20021;-77
2021/11/12 15:01:20;;;;;;;26.98;17.85;;;9.40;90.70;;;;;;5051998;28;20075;-76
2021/11/12 15:03:46;;;;;;;28.27;18.42;;;9.30;90.60;;;;;;5053662;28;20049;-76
2021/11/12 15:06:14;;;;;;;26.73;18.70;;;9.20;90.60;;;;;;5050167;28;20037;-77
2021/11/12 15:08:48;;;;;;;27.10;17.85;;;9.20;90.70;;;;;;5050804;28;20029;-77
2021/11/12 15:11:15;;;;;;;27.90;17.98;;;9.20;90.80;;;;;;5048202;28;20472;-77
2021/11/12 15:13:43;;;;;;;28.38;18.13;;;9.20;90.90;;;;;;5049952;28;20033;-77
2021/11/12 15:16:20;;;;;;;29.15;17.70;;;9.10;91.00;;;;;;5049883;28;20029;-77
2021/11/12 15:18:46;;;;;;;28.02;17.52;;;9.00;91.10;;;;;;5050317;28;20025;-76
2021/11/12 15:21:16;;;;;;;25.13;17.88;;;9.00;91.20;;;;;;5049692;28;20540;-77
2021/11/12 15:34:15;;;;;;;27.37;17.80;;;8.90;91.60;;;;;;5054733;28;20045;-77
2021/11/12 15:39:52;;;;;;;23.35;16.55;;;8.80;91.70;;;;;;5020939;28;20028;-76
2021/11/12 15:44:55;;;;;;;27.10;17.17;;;8.80;91.80;;;;;;5045810;28;20442;-76
2021/11/12 15:47:27;;;;;;;34.83;18.27;;;8.70;92.10;;;;;;5048070;28;20033;-77
2021/11/12 15:50:45;;;;;;;28.83;16.60;;;8.70;91.90;;;;;;5051492;28;20029;-77
2021/11/12 15:58:43;;;;;;;33.40;18.17;;;8.70;92.10;;;;;;5051003;28;20032;-77
2021/11/12 16:09:43;;;;;;;33.28;20.10;;;8.50;92.20;;;;;;5053456;28;20094;-76
2021/11/12 16:12:21;;;;;;;33.88;18.48;;;8.50;92.30;;;;;;5052913;28;20033;-76
2021/11/12 16:14:56;;;;;;;31.15;18.35;;;8.50;92.40;;;;;;5051111;28;20029;-77
2021/11/12 16:23:08;;;;;;;28.92;18.85;;;8.40;92.50;;;;;;5052142;28;20013;-76
2021/11/12 16:25:38;;;;;;;29.35;17.27;;;8.40;92.60;;;;;;5052213;28;20021;-76
2021/11/12 16:28:05;;;;;;;29.67;18.10;;;8.30;92.60;;;;;;5033839;28;20033;-76
2021/11/12 16:30:36;;;;;;;32.08;20.25;;;8.40;92.70;;;;;;5017592;28;20067;-76
2021/11/12 16:33:04;;;;;;;34.40;19.08;;;8.40;92.70;;;;;;5052041;28;20057;-77
2021/11/12 16:35:33;;;;;;;31.58;19.08;;;8.30;92.70;;;;;;5050572;28;20063;-76
2021/11/12 16:38:06;;;;;;;35.00;18.15;;;8.30;92.80;;;;;;5049237;28;20064;-76
2021/11/12 16:40:38;;;;;;;33.38;17.80;;;8.30;92.80;;;;;;5047668;28;20478;-77
2021/11/12 16:43:14;;;;;;;30.00;17.27;;;8.30;92.80;;;;;;5020296;28;20055;-77
2021/11/12 16:53:22;;;;;;;30.70;17.30;;;8.10;93.20;;;;;;5051386;28;20136;-76
2021/11/12 16:58:25;;;;;;;30.55;18.23;;;8.20;93.00;;;;;;5046919;28;20037;-75
2021/11/12 17:11:30;;;;;;;27.33;16.13;;;8.00;93.10;;;;;;5052001;28;20090;-76
2021/11/12 18:02:07;;;;;;;28.73;17.15;;;7.70;93.80;;;;;;5052423;28;20381;-79
2021/11/12 18:04:54;;;;;;;28.77;17.35;;;7.60;93.80;;;;;;5016629;28;20033;-78
2021/11/12 21:48:34;;;;;;;18.58;12.43;;;8.60;94.20;;;;;;5054009;28;20419;-78
2021/11/12 21:51:01;;;;;;;;;;;8.60;94.20;;;;;;5054155;28;20070;-77
2021/11/12 21:53:31;;;;;;;17.75;11.85;;;8.60;94.20;;;;;;5053708;28;19940;-78
2021/11/12 21:55:57;;;;;;;18.83;12.77;;;8.50;94.30;;;;;;5053432;28;20039;-78
2021/11/12 21:58:25;;;;;;;21.58;13.43;;;8.50;94.40;;;;;;5051037;28;20033;-78
2021/11/12 22:00:51;;;;;;;19.73;13.40;;;8.50;94.50;;;;;;5049499;28;20036;-78
2021/11/12 22:03:17;;;;;;;20.70;13.25;;;8.40;94.60;;;;;;5048597;28;20025;-78
2021/11/12 22:05:44;;;;;;;18.42;13.40;;;8.40;94.60;;;;;;5032152;28;20124;-78
2021/11/12 22:08:10;;;;;;;23.05;15.02;;;8.40;94.70;;;;;;5048116;28;20037;-78
2021/11/12 22:10:36;;;;;;;28.17;15.52;;;8.40;94.90;;;;;;5052124;28;20112;-79
2021/11/12 22:13:03;;;;;;;25.27;15.88;;;8.40;95.00;;;;;;5053407;28;20025;-79
2021/11/12 22:15:29;;;;;;;22.50;14.13;;;8.40;95.00;;;;;;5035546;28;20115;-79
2021/11/12 22:17:54;;;;;;;22.05;14.98;;;8.40;95.00;;;;;;5052852;28;20107;-78
2021/11/12 22:20:21;;;;;;;27.15;15.35;;;8.40;95.00;;;;;;5040848;28;20040;-78
2021/11/12 22:22:48;;;;;;;23.20;14.90;;;8.40;95.10;;;;;;5051832;28;20516;-77
2021/11/12 22:25:14;;;;;;;24.08;15.35;;;8.30;95.10;;;;;;5049553;28;20032;-78
2021/11/12 22:27:39;;;;;;;24.83;14.93;;;8.30;95.10;;;;;;5050184;28;20044;-78
2021/11/12 22:30:06;;;;;;;21.58;14.75;;;8.30;95.10;;;;;;5050135;28;20385;-78
2021/11/12 22:32:32;;;;;;;29.20;15.25;;;8.30;95.20;;;;;;5030458;28;20457;-78
2021/11/12 22:34:58;;;;;;;26.17;16.15;;;8.30;95.20;;;;;;5051426;28;20082;-78
2021/11/12 22:37:24;;;;;;;23.73;15.43;;;8.30;95.20;;;;;;5050767;28;20063;-78
2021/11/12 22:39:49;;;;;;;23.95;15.77;;;8.30;95.20;;;;;;5033084;28;20037;-78
2021/11/12 22:42:16;;;;;;;26.17;16.30;;;8.40;95.30;;;;;;5046849;28;20033;-78
2021/11/12 22:44:44;;;;;;;24.13;16.02;;;8.40;95.30;;;;;;5050535;28;20048;-78
2021/11/12 22:47:10;;;;;;;25.20;15.98;;;8.50;95.30;;;;;;5049827;28;20021;-78
2021/11/12 22:49:36;;;;;;;23.50;15.30;;;8.50;95.20;;;;;;5049805;28;20489;-77
2021/11/12 22:52:03;;;;;;;22.52;15.13;;;8.50;95.20;;;;;;5048396;28;20058;-78
2021/11/12 22:54:28;;;;;;;23.17;15.88;;;8.50;95.20;;;;;;5047548;28;20091;-78
2021/11/12 22:56:54;;;;;;;23.45;15.73;;;8.60;95.20;;;;;;5050038;28;20417;-78
2021/11/12 22:59:20;;;;;;;26.20;15.52;;;8.60;95.20;;;;;;5050646;28;20048;-78
2021/11/12 23:01:45;;;;;;;23.88;15.98;;;8.60;95.20;;;;;;5045546;28;20313;-78
2021/11/12 23:04:11;;;;;;;27.90;15.98;;;8.60;95.10;;;;;;5048346;28;20025;-78
2021/11/12 23:06:38;;;;;;;25.48;16.33;;;8.60;95.10;;;;;;5049041;28;20037;-78
2021/11/12 23:09:05;;;;;;;23.23;14.70;;;8.60;95.10;;;;;;5050651;28;20033;-78
2021/11/12 23:11:30;;;;;;;24.77;16.02;;;8.60;95.00;;;;;;5048283;28;20033;-78
2021/11/12 23:13:56;;;;;;;23.08;15.38;;;8.70;95.00;;;;;;5050477;28;20043;-78